sensor_id;sensor_type;location;lat;lon;timestamp;P1;durP1;ratioP1;P2;durP2;ratioP2
59314;SDS011;46521;50.160;20.802;2023-07-13T00:13:01;16.15;;;11.58;;
59314;SDS011;46521;50.160;20.802;2023-07-13T00:23:03;16.68;;;12.08;;
59314;SDS011;46521;50.160;20.802;2023-07-13T00:33:04;15.28;;;11.55;;
59314;SDS011;46521;50.160;20.802;2023-07-13T00:43:11;15.60;;;12.15;;
59314;SDS011;46521;50.160;20.802;2023-07-13T00:53:18;16.20;;;11.63;;
59314;SDS011;46521;50.160;20.802;2023-07-13T01:03:21;22.45;;;12.88;;
59314;SDS011;46521;50.160;20.802;2023-07-13T01:13:23;17.47;;;11.23;;
59314;SDS011;46521;50.160;20.802;2023-07-13T01:23:26;15.23;;;10.73;;
59314;SDS011;46521;50.160;20.802;2023-07-13T01:33:28;14.13;;;10.90;;
59314;SDS011;46521;50.160;20.802;2023-07-13T01:43:30;16.08;;;10.20;;
59314;SDS011;46521;50.160;20.802;2023-07-13T01:53:31;13.63;;;9.95;;
59314;SDS011;46521;50.160;20.802;2023-07-13T02:03:33;12.03;;;8.83;;
59314;SDS011;46521;50.160;20.802;2023-07-13T02:23:35;13.33;;;9.60;;
59314;SDS011;46521;50.160;20.802;2023-07-13T02:33:36;14.40;;;9.95;;
59314;SDS011;46521;50.160;20.802;2023-07-13T02:43:38;12.43;;;8.80;;
59314;SDS011;46521;50.160;20.802;2023-07-13T02:53:39;13.55;;;8.40;;
59314;SDS011;46521;50.160;20.802;2023-07-13T03:03:41;11.60;;;8.63;;
59314;SDS011;46521;50.160;20.802;2023-07-13T03:23:43;15.13;;;8.17;;
59314;SDS011;46521;50.160;20.802;2023-07-13T03:33:48;12.28;;;7.78;;
59314;SDS011;46521;50.160;20.802;2023-07-13T03:43:50;12.30;;;7.50;;
59314;SDS011;46521;50.160;20.802;2023-07-13T03:53:52;13.33;;;7.43;;
59314;SDS011;46521;50.160;20.802;2023-07-13T04:13:56;10.70;;;7.53;;
59314;SDS011;46521;50.160;20.802;2023-07-13T04:33:58;10.90;;;7.43;;
59314;SDS011;46521;50.160;20.802;2023-07-13T04:43:59;12.68;;;8.05;;
59314;SDS011;46521;50.160;20.802;2023-07-13T04:54:01;10.20;;;7.55;;
59314;SDS011;46521;50.160;20.802;2023-07-13T05:04:02;12.00;;;7.93;;
59314;SDS011;46521;50.160;20.802;2023-07-13T05:14:04;10.15;;;7.25;;
59314;SDS011;46521;50.160;20.802;2023-07-13T05:24:05;10.70;;;6.70;;
59314;SDS011;46521;50.160;20.802;2023-07-13T05:34:07;9.70;;;5.70;;
59314;SDS011;46521;50.160;20.802;2023-07-13T05:44:08;7.65;;;5.48;;
59314;SDS011;46521;50.160;20.802;2023-07-13T05:54:10;9.48;;;5.10;;
59314;SDS011;46521;50.160;20.802;2023-07-13T06:04:11;8.70;;;6.35;;
59314;SDS011;46521;50.160;20.802;2023-07-13T06:14:13;8.63;;;5.18;;
59314;SDS011;46521;50.160;20.802;2023-07-13T06:24:14;8.00;;;5.50;;
59314;SDS011;46521;50.160;20.802;2023-07-13T06:34:16;8.63;;;5.05;;
59314;SDS011;46521;50.160;20.802;2023-07-13T06:44:17;8.93;;;5.00;;
59314;SDS011;46521;50.160;20.802;2023-07-13T06:54:19;7.83;;;4.73;;
59314;SDS011;46521;50.160;20.802;2023-07-13T07:04:20;7.40;;;4.40;;
59314;SDS011;46521;50.160;20.802;2023-07-13T07:14:21;7.28;;;3.88;;
59314;SDS011;46521;50.160;20.802;2023-07-13T07:24:23;6.83;;;3.70;;
59314;SDS011;46521;50.160;20.802;2023-07-13T07:34:25;6.93;;;3.40;;
59314;SDS011;46521;50.160;20.802;2023-07-13T07:44:26;6.70;;;3.68;;
59314;SDS011;46521;50.160;20.802;2023-07-13T07:54:29;7.03;;;3.80;;
59314;SDS011;46521;50.160;20.802;2023-07-13T08:04:30;7.33;;;3.63;;
59314;SDS011;46521;50.160;20.802;2023-07-13T08:14:32;6.97;;;4.03;;
59314;SDS011;46521;50.160;20.802;2023-07-13T08:24:34;6.70;;;3.97;;
59314;SDS011;46521;50.160;20.802;2023-07-13T08:34:35;7.27;;;4.40;;
59314;SDS011;46521;50.160;20.802;2023-07-13T08:44:40;7.93;;;4.80;;
59314;SDS011;46521;50.160;20.802;2023-07-13T08:54:54;6.85;;;4.03;;
59314;SDS011;46521;50.160;20.802;2023-07-13T09:05:08;8.35;;;4.45;;
59314;SDS011;46521;50.160;20.802;2023-07-13T09:15:34;6.70;;;3.98;;
59314;SDS011;46521;50.160;20.802;2023-07-13T09:25:40;6.60;;;3.70;;
59314;SDS011;46521;50.160;20.802;2023-07-13T09:35:44;7.68;;;4.15;;
59314;SDS011;46521;50.160;20.802;2023-07-13T09:45:46;7.85;;;4.05;;
59314;SDS011;46521;50.160;20.802;2023-07-13T09:55:48;7.65;;;3.88;;
59314;SDS011;46521;50.160;20.802;2023-07-13T10:05:51;6.97;;;3.60;;
59314;SDS011;46521;50.160;20.802;2023-07-13T10:15:53;8.78;;;4.13;;
59314;SDS011;46521;50.160;20.802;2023-07-13T10:25:55;8.30;;;4.10;;
59314;SDS011;46521;50.160;20.802;2023-07-13T10:46:34;6.80;;;3.90;;
59314;SDS011;46521;50.160;20.802;2023-07-13T10:56:38;8.15;;;4.33;;
59314;SDS011;46521;50.160;20.802;2023-07-13T11:06:40;7.88;;;4.80;;
59314;SDS011;46521;50.160;20.802;2023-07-13T11:16:45;7.48;;;4.58;;
59314;SDS011;46521;50.160;20.802;2023-07-13T11:36:49;6.40;;;3.30;;
59314;SDS011;46521;50.160;20.802;2023-07-13T11:46:55;7.18;;;2.85;;
59314;SDS011;46521;50.160;20.802;2023-07-13T11:57:02;7.87;;;2.40;;
59314;SDS011;46521;50.160;20.802;2023-07-13T12:07:17;5.93;;;2.05;;
59314;SDS011;46521;50.160;20.802;2023-07-13T12:17:21;5.03;;;2.23;;
59314;SDS011;46521;50.160;20.802;2023-07-13T12:27:25;6.53;;;1.95;;
59314;SDS011;46521;50.160;20.802;2023-07-13T12:37:28;5.50;;;2.08;;
59314;SDS011;46521;50.160;20.802;2023-07-13T12:47:38;5.95;;;1.70;;
59314;SDS011;46521;50.160;20.802;2023-07-13T12:57:56;5.93;;;1.30;;
59314;SDS011;46521;50.160;20.802;2023-07-13T13:07:59;5.40;;;1.60;;
59314;SDS011;46521;50.160;20.802;2023-07-13T13:18:01;4.38;;;2.20;;
59314;SDS011;46521;50.160;20.802;2023-07-13T13:28:02;6.53;;;3.00;;
59314;SDS011;46521;50.160;20.802;2023-07-13T13:38:09;7.38;;;2.88;;
59314;SDS011;46521;50.160;20.802;2023-07-13T13:48:19;5.93;;;3.15;;
59314;SDS011;46521;50.160;20.802;2023-07-13T13:58:30;5.50;;;2.80;;
59314;SDS011;46521;50.160;20.802;2023-07-13T14:08:32;6.53;;;3.25;;
59314;SDS011;46521;50.160;20.802;2023-07-13T14:18:33;7.40;;;3.75;;
59314;SDS011;46521;50.160;20.802;2023-07-13T14:58:46;6.53;;;3.10;;
59314;SDS011;46521;50.160;20.802;2023-07-13T15:08:48;8.85;;;3.90;;
59314;SDS011;46521;50.160;20.802;2023-07-13T15:18:49;7.00;;;3.30;;
59314;SDS011;46521;50.160;20.802;2023-07-13T15:28:52;8.43;;;3.33;;
59314;SDS011;46521;50.160;20.802;2023-07-13T15:38:54;10.55;;;3.90;;
59314;SDS011;46521;50.160;20.802;2023-07-13T15:48:57;6.38;;;3.63;;
59314;SDS011;46521;50.160;20.802;2023-07-13T15:58:59;7.68;;;4.23;;
59314;SDS011;46521;50.160;20.802;2023-07-13T16:09:01;9.63;;;3.83;;
59314;SDS011;46521;50.160;20.802;2023-07-13T16:19:05;8.90;;;3.63;;
59314;SDS011;46521;50.160;20.802;2023-07-13T16:29:24;6.40;;;3.33;;
59314;SDS011;46521;50.160;20.802;2023-07-13T16:39:27;8.08;;;3.63;;
59314;SDS011;46521;50.160;20.802;2023-07-13T16:49:29;10.40;;;4.50;;
59314;SDS011;46521;50.160;20.802;2023-07-13T16:59:34;8.08;;;4.10;;
59314;SDS011;46521;50.160;20.802;2023-07-13T17:09:36;8.25;;;4.05;;
59314;SDS011;46521;50.160;20.802;2023-07-13T17:19:37;7.48;;;3.93;;
59314;SDS011;46521;50.160;20.802;2023-07-13T17:29:39;7.90;;;4.00;;
59314;SDS011;46521;50.160;20.802;2023-07-13T17:39:40;7.60;;;3.38;;
59314;SDS011;46521;50.160;20.802;2023-07-13T17:49:41;8.18;;;4.00;;
59314;SDS011;46521;50.160;20.802;2023-07-13T17:59:45;7.10;;;3.48;;
59314;SDS011;46521;50.160;20.802;2023-07-13T18:09:46;8.65;;;5.68;;
59314;SDS011;46521;50.160;20.802;2023-07-13T18:19:48;11.07;;;5.53;;
59314;SDS011;46521;50.160;20.802;2023-07-13T18:29:50;9.53;;;4.30;;
59314;SDS011;46521;50.160;20.802;2023-07-13T18:39:52;7.03;;;3.90;;
59314;SDS011;46521;50.160;20.802;2023-07-13T18:49:54;8.97;;;4.30;;
59314;SDS011;46521;50.160;20.802;2023-07-13T18:59:57;8.40;;;3.58;;
59314;SDS011;46521;50.160;20.802;2023-07-13T19:09:58;8.88;;;3.50;;
59314;SDS011;46521;50.160;20.802;2023-07-13T19:20:01;8.53;;;4.30;;
59314;SDS011;46521;50.160;20.802;2023-07-13T19:30:03;9.68;;;3.28;;
59314;SDS011;46521;50.160;20.802;2023-07-13T19:40:27;8.35;;;3.75;;
59314;SDS011;46521;50.160;20.802;2023-07-13T19:50:29;6.83;;;3.70;;
59314;SDS011;46521;50.160;20.802;2023-07-13T20:00:32;9.53;;;3.78;;
59314;SDS011;46521;50.160;20.802;2023-07-13T20:10:34;8.15;;;4.68;;
59314;SDS011;46521;50.160;20.802;2023-07-13T20:20:36;9.30;;;4.73;;
59314;SDS011;46521;50.160;20.802;2023-07-13T20:30:41;12.27;;;6.13;;
59314;SDS011;46521;50.160;20.802;2023-07-13T20:40:48;13.65;;;5.88;;
59314;SDS011;46521;50.160;20.802;2023-07-13T20:50:54;10.18;;;5.88;;
59314;SDS011;46521;50.160;20.802;2023-07-13T21:00:59;10.67;;;5.57;;
59314;SDS011;46521;50.160;20.802;2023-07-13T21:11:00;11.53;;;5.80;;
59314;SDS011;46521;50.160;20.802;2023-07-13T21:21:02;9.43;;;5.80;;
59314;SDS011;46521;50.160;20.802;2023-07-13T21:31:04;10.55;;;6.15;;
59314;SDS011;46521;50.160;20.802;2023-07-13T21:51:30;9.65;;;5.70;;
59314;SDS011;46521;50.160;20.802;2023-07-13T22:01:32;13.63;;;6.28;;
59314;SDS011;46521;50.160;20.802;2023-07-13T22:11:34;11.45;;;7.30;;
59314;SDS011;46521;50.160;20.802;2023-07-13T22:21:36;16.68;;;7.10;;
59314;SDS011;46521;50.160;20.802;2023-07-13T22:31:38;15.40;;;7.07;;
59314;SDS011;46521;50.160;20.802;2023-07-13T22:41:40;14.80;;;8.08;;
59314;SDS011;46521;50.160;20.802;2023-07-13T22:51:42;14.48;;;8.08;;
59314;SDS011;46521;50.160;20.802;2023-07-13T23:01:43;17.05;;;8.05;;
59314;SDS011;46521;50.160;20.802;2023-07-13T23:11:45;14.33;;;8.00;;
59314;SDS011;46521;50.160;20.802;2023-07-13T23:21:47;12.38;;;7.95;;
59314;SDS011;46521;50.160;20.802;2023-07-13T23:31:51;11.03;;;7.43;;
59314;SDS011;46521;50.160;20.802;2023-07-13T23:41:53;11.68;;;7.98;;
